Golden Cecilie — VROA6 — position and weather

sailwx.info

Track history (hours):
 
Tides and Currents Weather Stations Pressure Air Temp Water Temp Dewpoint Dewpoint Depression Visibility Wind Speed Wind Dir Waves Ship Positions

Golden Cecilie

Last reported at 2018-Jun-12 20:51 UTC. Time now 2018-Jun-18 09:10 UTC.
Position N 37°04' E 003°33'.

Length 198 m; draft 11.3 m.

Type: Cargo ship. MMSI: 477289900.

Date/timePositionNaut miles runAvg speedWind from/ knotsBaromVisibWave heightAir tempDewpointWater temp
2018-Jun-12 20:51N 37°04' E 003°33'2813.6
2018-Jun-12 18:48N 36°60' E 002°58'413.5
2018-Jun-12 18:30N 36°59' E 002°53'713.6
2018-Jun-12 18:00N 36°58' E 002°45'713.9
2018-Jun-12 17:31N 36°57' E 002°37'714.7
2018-Jun-12 17:01N 36°56' E 002°27'714.9
2018-Jun-12 16:30N 36°54' E 002°18'714.5
2018-Jun-12 16:01N 36°53' E 002°10'714.5
2018-Jun-12 15:31N 36°51' E 002°01'5815.1
2018-Jun-12 11:41N 36°40' E 000°50'314.5
2018-Jun-12 11:29N 36°40' E 000°46'914.1
2018-Jun-12 10:51N 36°38' E 000°35'514.0
2018-Jun-12 10:30N 36°37' E 000°29'715.3
2018-Jun-12 10:01N 36°36' E 000°20'3713.9
2018-Jun-12 07:20N 36°29' W 000°25'514.0
2018-Jun-12 07:00N 36°27' W 000°31'713.7
2018-Jun-12 06:29N 36°26' W 000°40'22114.4
2018-Jun-11 15:08N 36°00' W 005°11'217.0
2018-Jun-11 15:01N 36°00' W 005°14'611.7
2018-Jun-11 14:30N 36°04' W 005°19'5 0.6
2018-Jun-11 06:42N 36°08' W 005°23'0 0.0
2018-Jun-11 06:30N 36°08' W 005°23'0 0.0
2018-Jun-11 06:00N 36°08' W 005°23'0 0.0
2018-Jun-11 05:30N 36°08' W 005°23'0 0.1
2018-Jun-11 04:42N 36°08' W 005°23'0 0.1
2018-Jun-11 04:30N 36°08' W 005°23'0 0.1
2018-Jun-11 03:54N 36°08' W 005°23'0 0.1
2018-Jun-11 03:30N 36°08' W 005°23'0 0.1
2018-Jun-11 03:00N 36°08' W 005°23'0 0.1
2018-Jun-11 02:30N 36°08' W 005°23'0 0.1
2018-Jun-11 02:00N 36°08' W 005°23'0 0.1
2018-Jun-11 01:30N 36°08' W 005°22'0 0.0
2018-Jun-11 01:00N 36°08' W 005°22'0 0.1
2018-Jun-11 00:30N 36°08' W 005°22'0 0.0
2018-Jun-10 23:54N 36°08' W 005°22'0 0.1
2018-Jun-10 23:27N 36°08' W 005°23'0 0.1
2018-Jun-10 23:00N 36°08' W 005°22'0 0.0
2018-Jun-10 22:30N 36°08' W 005°22'0 0.1
2018-Jun-10 22:00N 36°08' W 005°22'0 0.3
2018-Jun-10 21:30N 36°08' W 005°23'0 0.2
2018-Jun-10 21:00N 36°08' W 005°23'2 4.3
2018-Jun-10 20:30N 36°06' W 005°22'3 6.2
2018-Jun-10 20:01N 36°03' W 005°20'3 5.0
2018-Jun-10 19:29N 36°01' W 005°20'714.3
2018-Jun-10 19:00N 35°58' W 005°28'815.3
2018-Jun-10 18:30N 35°55' W 005°37'1214.4
2018-Jun-10 17:39N 35°55' W 005°52'214.4
2018-Jun-10 17:30N 35°55' W 005°55'  
2018-Jun-07 21:04N 39°48' W 024°11'112.9
2018-Jun-07 21:00N 39°48' W 024°13'812.9
2018-Jun-07 20:22N 39°49' W 024°23'512.8
2018-Jun-07 20:00N 39°50' W 024°29'713.2
2018-Jun-07 19:28N 39°52' W 024°38'613.4
2018-Jun-07 19:00N 39°53' W 024°46'813.3
2018-Jun-07 18:26N 39°55' W 024°55'713.2
2018-Jun-07 17:56N 39°56' W 025°04'1113.1
2018-Jun-07 17:06N 39°58' W 025°18'213.3
2018-Jun-07 16:56N 39°58' W 025°21'613.2
2018-Jun-07 16:27N 39°60' W 025°29'613.3
2018-Jun-07 15:59N 40°01' W 025°37'613.6
2018-Jun-07 15:30N 40°02' W 025°45'713.4
2018-Jun-07 15:01N 40°03' W 025°54'813.7
2018-Jun-07 14:25N 40°04' W 026°04'613.6
2018-Jun-07 13:57N 40°06' W 026°12'613.6
2018-Jun-07 13:30N 40°07' W 026°20'1713.4
2018-Jun-07 12:15N 40°10' W 026°42'713.4
2018-Jun-07 11:42N 40°11' W 026°51'1213.4
2018-Jun-07 10:49N 40°13' W 027°06'513.7
2018-Jun-07 10:26N 40°14' W 027°13'1713.8
2018-Jun-07 09:14N 40°17' W 027°35'313.3
2018-Jun-07 09:00N 40°17' W 027°39'813.9
2018-Jun-07 08:24N 40°19' W 027°49'613.6
2018-Jun-07 07:57N 40°20' W 027°57'613.4
2018-Jun-07 07:30N 40°21' W 028°05'913.6
2018-Jun-07 06:48N 40°22' W 028°17'813.4
2018-Jun-07 06:14N 40°23' W 028°27'313.2
2018-Jun-07 06:00N 40°24' W 028°31'713.3
2018-Jun-07 05:30N 40°25' W 028°40'713.4
2018-Jun-07 05:00N 40°26' W 028°49'612.9
2018-Jun-07 04:30N 40°27' W 028°57'813.6
2018-Jun-07 03:55N 40°28' W 029°07'613.6
2018-Jun-07 03:31N 40°29' W 029°14'713.1
2018-Jun-07 02:58N 40°30' W 029°24'612.8
2018-Jun-07 02:30N 40°31' W 029°32'612.9
2018-Jun-07 02:00N 40°31' W 029°40'713.2
2018-Jun-07 01:30N 40°33' W 029°48'713.3
2018-Jun-07 01:00N 40°34' W 029°57'713.3
2018-Jun-07 00:30N 40°35' W 030°06'713.4
2018-Jun-07 00:01N 40°35' W 030°15'713.6
2018-Jun-06 23:30N 40°36' W 030°23'713.7
2018-Jun-06 23:00N 40°37' W 030°32'813.6
2018-Jun-06 22:27N 40°38' W 030°42'713.6
2018-Jun-06 21:56N 40°39' W 030°51'613.8
2018-Jun-06 21:30N 40°41' W 030°59'713.4
2018-Jun-06 20:58N 40°41' W 031°08'813.5
2018-Jun-06 20:23N 40°42' W 031°19'  
Track history (hours):
 
Tides and Currents Weather Stations Pressure Air Temp Water Temp Dewpoint Dewpoint Depression Visibility Wind Speed Wind Dir Waves Ship Positions

Golden Cecilie

Last reported at 2018-Jun-12 20:51 UTC. Time now 2018-Jun-18 09:10 UTC.
Position N 37°04' E 003°33'.

Length 198 m; draft 11.3 m.

Type: Cargo ship. MMSI: 477289900.

Date/timePositionNaut miles runAvg speedWind from/ knotsBaromVisibWave heightAir tempDewpointWater temp
2018-Jun-12 20:51N 37°04' E 003°33'2813.6
2018-Jun-12 18:48N 36°60' E 002°58'413.5
2018-Jun-12 18:30N 36°59' E 002°53'713.6
2018-Jun-12 18:00N 36°58' E 002°45'713.9
2018-Jun-12 17:31N 36°57' E 002°37'714.7
2018-Jun-12 17:01N 36°56' E 002°27'714.9
2018-Jun-12 16:30N 36°54' E 002°18'714.5
2018-Jun-12 16:01N 36°53' E 002°10'714.5
2018-Jun-12 15:31N 36°51' E 002°01'5815.1
2018-Jun-12 11:41N 36°40' E 000°50'314.5
2018-Jun-12 11:29N 36°40' E 000°46'914.1
2018-Jun-12 10:51N 36°38' E 000°35'514.0
2018-Jun-12 10:30N 36°37' E 000°29'715.3
2018-Jun-12 10:01N 36°36' E 000°20'3713.9
2018-Jun-12 07:20N 36°29' W 000°25'514.0
2018-Jun-12 07:00N 36°27' W 000°31'713.7
2018-Jun-12 06:29N 36°26' W 000°40'22114.4
2018-Jun-11 15:08N 36°00' W 005°11'217.0
2018-Jun-11 15:01N 36°00' W 005°14'611.7
2018-Jun-11 14:30N 36°04' W 005°19'5 0.6
2018-Jun-11 06:42N 36°08' W 005°23'0 0.0
2018-Jun-11 06:30N 36°08' W 005°23'0 0.0
2018-Jun-11 06:00N 36°08' W 005°23'0 0.0
2018-Jun-11 05:30N 36°08' W 005°23'0 0.1
2018-Jun-11 04:42N 36°08' W 005°23'0 0.1
2018-Jun-11 04:30N 36°08' W 005°23'0 0.1
2018-Jun-11 03:54N 36°08' W 005°23'0 0.1
2018-Jun-11 03:30N 36°08' W 005°23'0 0.1
2018-Jun-11 03:00N 36°08' W 005°23'0 0.1
2018-Jun-11 02:30N 36°08' W 005°23'0 0.1
2018-Jun-11 02:00N 36°08' W 005°23'0 0.1
2018-Jun-11 01:30N 36°08' W 005°22'0 0.0
2018-Jun-11 01:00N 36°08' W 005°22'0 0.1
2018-Jun-11 00:30N 36°08' W 005°22'0 0.0
2018-Jun-10 23:54N 36°08' W 005°22'0 0.1
2018-Jun-10 23:27N 36°08' W 005°23'0 0.1
2018-Jun-10 23:00N 36°08' W 005°22'0 0.0
2018-Jun-10 22:30N 36°08' W 005°22'0 0.1
2018-Jun-10 22:00N 36°08' W 005°22'0 0.3
2018-Jun-10 21:30N 36°08' W 005°23'0 0.2
2018-Jun-10 21:00N 36°08' W 005°23'2 4.3
2018-Jun-10 20:30N 36°06' W 005°22'3 6.2
2018-Jun-10 20:01N 36°03' W 005°20'3 5.0
2018-Jun-10 19:29N 36°01' W 005°20'714.3
2018-Jun-10 19:00N 35°58' W 005°28'815.3
2018-Jun-10 18:30N 35°55' W 005°37'1214.4
2018-Jun-10 17:39N 35°55' W 005°52'214.4
2018-Jun-10 17:30N 35°55' W 005°55'  
2018-Jun-07 21:04N 39°48' W 024°11'112.9
2018-Jun-07 21:00N 39°48' W 024°13'812.9
2018-Jun-07 20:22N 39°49' W 024°23'512.8
2018-Jun-07 20:00N 39°50' W 024°29'713.2
2018-Jun-07 19:28N 39°52' W 024°38'613.4
2018-Jun-07 19:00N 39°53' W 024°46'813.3
2018-Jun-07 18:26N 39°55' W 024°55'713.2
2018-Jun-07 17:56N 39°56' W 025°04'1113.1
2018-Jun-07 17:06N 39°58' W 025°18'213.3
2018-Jun-07 16:56N 39°58' W 025°21'613.2
2018-Jun-07 16:27N 39°60' W 025°29'613.3
2018-Jun-07 15:59N 40°01' W 025°37'613.6
2018-Jun-07 15:30N 40°02' W 025°45'713.4
2018-Jun-07 15:01N 40°03' W 025°54'813.7
2018-Jun-07 14:25N 40°04' W 026°04'613.6
2018-Jun-07 13:57N 40°06' W 026°12'613.6
2018-Jun-07 13:30N 40°07' W 026°20'1713.4
2018-Jun-07 12:15N 40°10' W 026°42'713.4
2018-Jun-07 11:42N 40°11' W 026°51'1213.4
2018-Jun-07 10:49N 40°13' W 027°06'513.7
2018-Jun-07 10:26N 40°14' W 027°13'1713.8
2018-Jun-07 09:14N 40°17' W 027°35'313.3
2018-Jun-07 09:00N 40°17' W 027°39'813.9
2018-Jun-07 08:24N 40°19' W 027°49'613.6
2018-Jun-07 07:57N 40°20' W 027°57'613.4
2018-Jun-07 07:30N 40°21' W 028°05'913.6
2018-Jun-07 06:48N 40°22' W 028°17'813.4
2018-Jun-07 06:14N 40°23' W 028°27'313.2
2018-Jun-07 06:00N 40°24' W 028°31'713.3
2018-Jun-07 05:30N 40°25' W 028°40'713.4
2018-Jun-07 05:00N 40°26' W 028°49'612.9
2018-Jun-07 04:30N 40°27' W 028°57'813.6
2018-Jun-07 03:55N 40°28' W 029°07'613.6
2018-Jun-07 03:31N 40°29' W 029°14'713.1
2018-Jun-07 02:58N 40°30' W 029°24'612.8
2018-Jun-07 02:30N 40°31' W 029°32'612.9
2018-Jun-07 02:00N 40°31' W 029°40'713.2
2018-Jun-07 01:30N 40°33' W 029°48'713.3
2018-Jun-07 01:00N 40°34' W 029°57'713.3
2018-Jun-07 00:30N 40°35' W 030°06'713.4
2018-Jun-07 00:01N 40°35' W 030°15'713.6
2018-Jun-06 23:30N 40°36' W 030°23'713.7
2018-Jun-06 23:00N 40°37' W 030°32'813.6
2018-Jun-06 22:27N 40°38' W 030°42'713.6
2018-Jun-06 21:56N 40°39' W 030°51'613.8
2018-Jun-06 21:30N 40°41' W 030°59'713.4
2018-Jun-06 20:58N 40°41' W 031°08'813.5
2018-Jun-06 20:23N 40°42' W 031°19'  

Dump ship's entire track history